sensor_id;sensor_type;location;lat;lon;timestamp;P1;durP1;ratioP1;P2;durP2;ratioP2
7707;SDS011;3896;48.758;8.888;2023-03-01T00:02:16;17.00;;;10.70;;
7707;SDS011;3896;48.758;8.888;2023-03-01T00:04:42;14.87;;;10.37;;
7707;SDS011;3896;48.758;8.888;2023-03-01T00:07:08;14.33;;;9.97;;
7707;SDS011;3896;48.758;8.888;2023-03-01T00:09:33;16.17;;;10.97;;
7707;SDS011;3896;48.758;8.888;2023-03-01T00:12:01;18.17;;;11.00;;
7707;SDS011;3896;48.758;8.888;2023-03-01T00:14:27;16.80;;;9.53;;
7707;SDS011;3896;48.758;8.888;2023-03-01T00:16:53;19.33;;;10.73;;
7707;SDS011;3896;48.758;8.888;2023-03-01T00:19:19;18.07;;;10.70;;
7707;SDS011;3896;48.758;8.888;2023-03-01T00:21:45;20.90;;;11.03;;
7707;SDS011;3896;48.758;8.888;2023-03-01T00:24:11;17.83;;;10.20;;
7707;SDS011;3896;48.758;8.888;2023-03-01T00:26:36;17.77;;;10.67;;
7707;SDS011;3896;48.758;8.888;2023-03-01T00:29:02;21.43;;;10.47;;
7707;SDS011;3896;48.758;8.888;2023-03-01T00:31:29;15.83;;;10.20;;
7707;SDS011;3896;48.758;8.888;2023-03-01T00:33:57;19.90;;;10.73;;
7707;SDS011;3896;48.758;8.888;2023-03-01T00:36:26;15.97;;;9.97;;
7707;SDS011;3896;48.758;8.888;2023-03-01T00:38:54;17.13;;;11.23;;
7707;SDS011;3896;48.758;8.888;2023-03-01T00:41:20;18.60;;;9.77;;
7707;SDS011;3896;48.758;8.888;2023-03-01T00:43:52;21.03;;;11.03;;
7707;SDS011;3896;48.758;8.888;2023-03-01T00:46:19;16.60;;;10.70;;
7707;SDS011;3896;48.758;8.888;2023-03-01T00:48:47;20.67;;;10.83;;
7707;SDS011;3896;48.758;8.888;2023-03-01T00:51:16;16.67;;;10.17;;
7707;SDS011;3896;48.758;8.888;2023-03-01T00:53:44;14.23;;;9.87;;
7707;SDS011;3896;48.758;8.888;2023-03-01T00:56:10;15.57;;;10.03;;
7707;SDS011;3896;48.758;8.888;2023-03-01T00:58:37;16.87;;;10.53;;
7707;SDS011;3896;48.758;8.888;2023-03-01T01:01:14;16.77;;;10.77;;
7707;SDS011;3896;48.758;8.888;2023-03-01T01:06:24;19.07;;;9.57;;
7707;SDS011;3896;48.758;8.888;2023-03-01T01:08:52;14.83;;;10.30;;
7707;SDS011;3896;48.758;8.888;2023-03-01T01:11:18;14.90;;;10.03;;
7707;SDS011;3896;48.758;8.888;2023-03-01T01:13:45;15.87;;;10.60;;
7707;SDS011;3896;48.758;8.888;2023-03-01T01:16:12;16.27;;;10.77;;
7707;SDS011;3896;48.758;8.888;2023-03-01T01:18:38;18.63;;;10.13;;
7707;SDS011;3896;48.758;8.888;2023-03-01T01:21:08;20.53;;;11.10;;
7707;SDS011;3896;48.758;8.888;2023-03-01T01:23:36;20.77;;;10.73;;
7707;SDS011;3896;48.758;8.888;2023-03-01T01:26:03;18.27;;;10.57;;
7707;SDS011;3896;48.758;8.888;2023-03-01T01:28:33;18.77;;;10.83;;
7707;SDS011;3896;48.758;8.888;2023-03-01T01:30:59;19.10;;;11.37;;
7707;SDS011;3896;48.758;8.888;2023-03-01T01:33:24;22.30;;;12.13;;
7707;SDS011;3896;48.758;8.888;2023-03-01T01:35:50;18.30;;;11.83;;
7707;SDS011;3896;48.758;8.888;2023-03-01T01:38:16;19.40;;;11.53;;
7707;SDS011;3896;48.758;8.888;2023-03-01T01:40:48;17.50;;;11.73;;
7707;SDS011;3896;48.758;8.888;2023-03-01T01:43:19;19.17;;;11.70;;
7707;SDS011;3896;48.758;8.888;2023-03-01T01:45:47;19.17;;;11.40;;
7707;SDS011;3896;48.758;8.888;2023-03-01T01:48:14;18.93;;;10.90;;
7707;SDS011;3896;48.758;8.888;2023-03-01T01:50:45;23.10;;;11.37;;
7707;SDS011;3896;48.758;8.888;2023-03-01T01:53:15;18.03;;;11.10;;
7707;SDS011;3896;48.758;8.888;2023-03-01T01:55:47;15.17;;;11.17;;
7707;SDS011;3896;48.758;8.888;2023-03-01T01:58:18;18.67;;;12.17;;
7707;SDS011;3896;48.758;8.888;2023-03-01T02:00:45;18.53;;;11.57;;
7707;SDS011;3896;48.758;8.888;2023-03-01T02:03:14;20.50;;;11.43;;
7707;SDS011;3896;48.758;8.888;2023-03-01T02:05:55;20.47;;;10.17;;
7707;SDS011;3896;48.758;8.888;2023-03-01T02:08:26;19.23;;;11.03;;
7707;SDS011;3896;48.758;8.888;2023-03-01T02:10:55;17.43;;;10.93;;
7707;SDS011;3896;48.758;8.888;2023-03-01T02:13:22;18.60;;;12.57;;
7707;SDS011;3896;48.758;8.888;2023-03-01T02:15:48;17.73;;;11.17;;
7707;SDS011;3896;48.758;8.888;2023-03-01T02:18:16;21.03;;;11.57;;
7707;SDS011;3896;48.758;8.888;2023-03-01T02:23:24;22.67;;;12.67;;
7707;SDS011;3896;48.758;8.888;2023-03-01T02:28:24;24.93;;;11.83;;
7707;SDS011;3896;48.758;8.888;2023-03-01T02:31:07;21.37;;;11.97;;
7707;SDS011;3896;48.758;8.888;2023-03-01T02:33:53;20.13;;;11.23;;
7707;SDS011;3896;48.758;8.888;2023-03-01T02:36:21;19.93;;;11.40;;
7707;SDS011;3896;48.758;8.888;2023-03-01T02:38:51;17.53;;;10.60;;
7707;SDS011;3896;48.758;8.888;2023-03-01T02:41:21;20.87;;;12.03;;
7707;SDS011;3896;48.758;8.888;2023-03-01T02:43:48;19.20;;;11.57;;
7707;SDS011;3896;48.758;8.888;2023-03-01T02:46:15;20.43;;;12.13;;
7707;SDS011;3896;48.758;8.888;2023-03-01T02:48:45;21.10;;;10.93;;
7707;SDS011;3896;48.758;8.888;2023-03-01T02:56:28;19.33;;;10.80;;
7707;SDS011;3896;48.758;8.888;2023-03-01T02:58:54;21.20;;;11.67;;
7707;SDS011;3896;48.758;8.888;2023-03-01T03:01:25;24.90;;;12.63;;
7707;SDS011;3896;48.758;8.888;2023-03-01T03:04:05;22.20;;;11.17;;
7707;SDS011;3896;48.758;8.888;2023-03-01T03:06:32;19.20;;;12.00;;
7707;SDS011;3896;48.758;8.888;2023-03-01T03:08:58;24.67;;;13.47;;
7707;SDS011;3896;48.758;8.888;2023-03-01T03:11:24;26.23;;;14.80;;
7707;SDS011;3896;48.758;8.888;2023-03-01T03:13:50;25.10;;;14.07;;
7707;SDS011;3896;48.758;8.888;2023-03-01T03:16:17;25.93;;;14.17;;
7707;SDS011;3896;48.758;8.888;2023-03-01T03:18:43;23.03;;;13.67;;
7707;SDS011;3896;48.758;8.888;2023-03-01T03:21:09;22.57;;;14.13;;
7707;SDS011;3896;48.758;8.888;2023-03-01T03:23:36;24.43;;;13.90;;
7707;SDS011;3896;48.758;8.888;2023-03-01T03:26:02;24.90;;;13.53;;
7707;SDS011;3896;48.758;8.888;2023-03-01T03:28:29;29.00;;;13.23;;
7707;SDS011;3896;48.758;8.888;2023-03-01T03:30:55;26.87;;;13.83;;
7707;SDS011;3896;48.758;8.888;2023-03-01T03:33:21;21.53;;;12.83;;
7707;SDS011;3896;48.758;8.888;2023-03-01T03:35:48;25.33;;;14.03;;
7707;SDS011;3896;48.758;8.888;2023-03-01T03:38:14;23.73;;;13.00;;
7707;SDS011;3896;48.758;8.888;2023-03-01T03:43:37;23.63;;;13.50;;
7707;SDS011;3896;48.758;8.888;2023-03-01T03:46:04;25.47;;;14.17;;
7707;SDS011;3896;48.758;8.888;2023-03-01T03:48:52;22.50;;;14.80;;
7707;SDS011;3896;48.758;8.888;2023-03-01T03:51:17;21.30;;;12.77;;
7707;SDS011;3896;48.758;8.888;2023-03-01T03:53:43;22.23;;;13.17;;
7707;SDS011;3896;48.758;8.888;2023-03-01T03:56:10;23.03;;;13.80;;
7707;SDS011;3896;48.758;8.888;2023-03-01T03:58:35;23.33;;;13.20;;
7707;SDS011;3896;48.758;8.888;2023-03-01T04:01:02;26.07;;;13.60;;
7707;SDS011;3896;48.758;8.888;2023-03-01T04:03:28;21.83;;;12.90;;
7707;SDS011;3896;48.758;8.888;2023-03-01T04:05:56;25.43;;;14.70;;
7707;SDS011;3896;48.758;8.888;2023-03-01T04:08:23;25.37;;;12.93;;
7707;SDS011;3896;48.758;8.888;2023-03-01T04:10:51;26.37;;;14.17;;
7707;SDS011;3896;48.758;8.888;2023-03-01T04:13:19;22.27;;;13.53;;
7707;SDS011;3896;48.758;8.888;2023-03-01T04:15:49;23.10;;;13.57;;
7707;SDS011;3896;48.758;8.888;2023-03-01T04:18:16;20.33;;;13.80;;
7707;SDS011;3896;48.758;8.888;2023-03-01T04:20:42;23.17;;;13.50;;
7707;SDS011;3896;48.758;8.888;2023-03-01T04:23:11;23.23;;;12.97;;
7707;SDS011;3896;48.758;8.888;2023-03-01T04:25:47;23.40;;;14.07;;
7707;SDS011;3896;48.758;8.888;2023-03-01T04:28:27;24.43;;;14.50;;
7707;SDS011;3896;48.758;8.888;2023-03-01T04:30:57;21.70;;;14.23;;
7707;SDS011;3896;48.758;8.888;2023-03-01T04:33:29;22.43;;;13.27;;
7707;SDS011;3896;48.758;8.888;2023-03-01T04:35:55;26.70;;;14.53;;
7707;SDS011;3896;48.758;8.888;2023-03-01T04:38:22;24.30;;;13.73;;
7707;SDS011;3896;48.758;8.888;2023-03-01T04:40:48;22.13;;;14.77;;
7707;SDS011;3896;48.758;8.888;2023-03-01T04:43:13;28.97;;;15.63;;
7707;SDS011;3896;48.758;8.888;2023-03-01T04:45:39;24.83;;;14.80;;
7707;SDS011;3896;48.758;8.888;2023-03-01T04:48:05;26.83;;;15.87;;
7707;SDS011;3896;48.758;8.888;2023-03-01T04:50:31;22.07;;;13.33;;
7707;SDS011;3896;48.758;8.888;2023-03-01T04:52:57;23.40;;;14.77;;
7707;SDS011;3896;48.758;8.888;2023-03-01T04:55:28;25.07;;;14.37;;
7707;SDS011;3896;48.758;8.888;2023-03-01T04:57:54;29.07;;;15.50;;
7707;SDS011;3896;48.758;8.888;2023-03-01T05:00:20;22.77;;;14.40;;
7707;SDS011;3896;48.758;8.888;2023-03-01T05:05:18;23.67;;;15.03;;
7707;SDS011;3896;48.758;8.888;2023-03-01T05:07:56;22.63;;;13.93;;
7707;SDS011;3896;48.758;8.888;2023-03-01T05:10:23;28.33;;;14.90;;
7707;SDS011;3896;48.758;8.888;2023-03-01T05:12:50;22.97;;;14.40;;
7707;SDS011;3896;48.758;8.888;2023-03-01T05:15:17;22.80;;;14.63;;
7707;SDS011;3896;48.758;8.888;2023-03-01T05:17:43;27.20;;;14.83;;
7707;SDS011;3896;48.758;8.888;2023-03-01T05:20:09;24.90;;;14.43;;
7707;SDS011;3896;48.758;8.888;2023-03-01T05:22:35;24.50;;;14.10;;
7707;SDS011;3896;48.758;8.888;2023-03-01T05:25:02;29.20;;;15.27;;
7707;SDS011;3896;48.758;8.888;2023-03-01T05:27:28;29.23;;;14.20;;
7707;SDS011;3896;48.758;8.888;2023-03-01T05:29:54;24.60;;;14.40;;
7707;SDS011;3896;48.758;8.888;2023-03-01T05:32:20;27.40;;;15.20;;
7707;SDS011;3896;48.758;8.888;2023-03-01T05:34:45;25.40;;;14.67;;
7707;SDS011;3896;48.758;8.888;2023-03-01T05:37:11;28.30;;;14.53;;
7707;SDS011;3896;48.758;8.888;2023-03-01T05:39:38;25.27;;;15.27;;
7707;SDS011;3896;48.758;8.888;2023-03-01T05:42:04;25.43;;;14.47;;
7707;SDS011;3896;48.758;8.888;2023-03-01T05:44:29;30.30;;;14.97;;
7707;SDS011;3896;48.758;8.888;2023-03-01T05:46:55;25.93;;;14.10;;
7707;SDS011;3896;48.758;8.888;2023-03-01T05:49:21;26.50;;;14.57;;
7707;SDS011;3896;48.758;8.888;2023-03-01T05:51:50;25.90;;;14.80;;
7707;SDS011;3896;48.758;8.888;2023-03-01T05:54:16;23.80;;;14.27;;
7707;SDS011;3896;48.758;8.888;2023-03-01T05:56:42;24.23;;;14.37;;
7707;SDS011;3896;48.758;8.888;2023-03-01T05:59:08;25.50;;;14.73;;
7707;SDS011;3896;48.758;8.888;2023-03-01T06:01:34;26.20;;;14.93;;
7707;SDS011;3896;48.758;8.888;2023-03-01T06:04:01;25.13;;;15.20;;
7707;SDS011;3896;48.758;8.888;2023-03-01T06:06:27;24.97;;;14.93;;
7707;SDS011;3896;48.758;8.888;2023-03-01T06:08:53;24.60;;;13.90;;
7707;SDS011;3896;48.758;8.888;2023-03-01T06:11:19;25.93;;;15.37;;
7707;SDS011;3896;48.758;8.888;2023-03-01T06:13:46;24.80;;;15.17;;
7707;SDS011;3896;48.758;8.888;2023-03-01T06:16:12;22.63;;;14.03;;
7707;SDS011;3896;48.758;8.888;2023-03-01T06:18:38;24.77;;;14.30;;
7707;SDS011;3896;48.758;8.888;2023-03-01T06:21:05;23.87;;;14.40;;
7707;SDS011;3896;48.758;8.888;2023-03-01T06:23:31;27.40;;;14.17;;
7707;SDS011;3896;48.758;8.888;2023-03-01T06:25:57;29.83;;;15.77;;
7707;SDS011;3896;48.758;8.888;2023-03-01T06:28:23;28.77;;;15.67;;
7707;SDS011;3896;48.758;8.888;2023-03-01T06:30:49;25.67;;;15.57;;
7707;SDS011;3896;48.758;8.888;2023-03-01T06:33:16;23.20;;;15.43;;
7707;SDS011;3896;48.758;8.888;2023-03-01T06:35:44;25.13;;;14.40;;
7707;SDS011;3896;48.758;8.888;2023-03-01T06:38:09;27.50;;;15.50;;
7707;SDS011;3896;48.758;8.888;2023-03-01T06:40:35;22.63;;;14.20;;
7707;SDS011;3896;48.758;8.888;2023-03-01T06:43:00;23.10;;;14.67;;
7707;SDS011;3896;48.758;8.888;2023-03-01T06:45:26;26.07;;;15.37;;
7707;SDS011;3896;48.758;8.888;2023-03-01T06:47:52;20.37;;;13.17;;
7707;SDS011;3896;48.758;8.888;2023-03-01T06:50:17;24.50;;;14.80;;
7707;SDS011;3896;48.758;8.888;2023-03-01T06:52:43;28.17;;;15.90;;
7707;SDS011;3896;48.758;8.888;2023-03-01T06:55:10;27.07;;;15.60;;
7707;SDS011;3896;48.758;8.888;2023-03-01T06:57:36;22.80;;;14.40;;
7707;SDS011;3896;48.758;8.888;2023-03-01T07:00:03;24.53;;;14.60;;
7707;SDS011;3896;48.758;8.888;2023-03-01T07:02:29;26.33;;;14.63;;
7707;SDS011;3896;48.758;8.888;2023-03-01T07:04:55;28.57;;;15.67;;
7707;SDS011;3896;48.758;8.888;2023-03-01T07:07:21;28.13;;;15.33;;
7707;SDS011;3896;48.758;8.888;2023-03-01T07:09:48;24.47;;;15.10;;
7707;SDS011;3896;48.758;8.888;2023-03-01T07:12:13;25.80;;;14.07;;
7707;SDS011;3896;48.758;8.888;2023-03-01T07:14:39;24.77;;;15.13;;
7707;SDS011;3896;48.758;8.888;2023-03-01T07:17:05;24.07;;;14.33;;
7707;SDS011;3896;48.758;8.888;2023-03-01T07:19:31;23.13;;;14.73;;
7707;SDS011;3896;48.758;8.888;2023-03-01T07:21:56;23.60;;;15.10;;
7707;SDS011;3896;48.758;8.888;2023-03-01T07:24:22;26.70;;;14.97;;
7707;SDS011;3896;48.758;8.888;2023-03-01T07:26:48;24.10;;;15.23;;
7707;SDS011;3896;48.758;8.888;2023-03-01T07:29:15;28.83;;;15.30;;
7707;SDS011;3896;48.758;8.888;2023-03-01T07:31:40;26.17;;;13.63;;
7707;SDS011;3896;48.758;8.888;2023-03-01T07:34:06;22.73;;;14.57;;
7707;SDS011;3896;48.758;8.888;2023-03-01T07:36:31;22.13;;;13.67;;
7707;SDS011;3896;48.758;8.888;2023-03-01T07:38:57;24.23;;;14.30;;
7707;SDS011;3896;48.758;8.888;2023-03-01T07:41:23;23.73;;;13.40;;
7707;SDS011;3896;48.758;8.888;2023-03-01T07:43:48;27.17;;;14.60;;
7707;SDS011;3896;48.758;8.888;2023-03-01T07:46:14;22.60;;;14.43;;
7707;SDS011;3896;48.758;8.888;2023-03-01T07:48:39;24.50;;;14.13;;
7707;SDS011;3896;48.758;8.888;2023-03-01T07:51:05;26.63;;;15.50;;
7707;SDS011;3896;48.758;8.888;2023-03-01T07:53:33;22.33;;;14.63;;
7707;SDS011;3896;48.758;8.888;2023-03-01T07:56:00;24.60;;;14.30;;
7707;SDS011;3896;48.758;8.888;2023-03-01T07:58:29;24.80;;;14.13;;
7707;SDS011;3896;48.758;8.888;2023-03-01T08:00:55;24.20;;;15.27;;
7707;SDS011;3896;48.758;8.888;2023-03-01T08:03:20;23.67;;;13.97;;
7707;SDS011;3896;48.758;8.888;2023-03-01T08:05:46;23.20;;;15.27;;
7707;SDS011;3896;48.758;8.888;2023-03-01T08:08:11;23.63;;;15.57;;
7707;SDS011;3896;48.758;8.888;2023-03-01T08:10:37;24.90;;;15.40;;
7707;SDS011;3896;48.758;8.888;2023-03-01T08:13:04;23.93;;;15.70;;
7707;SDS011;3896;48.758;8.888;2023-03-01T08:15:29;26.30;;;15.83;;
7707;SDS011;3896;48.758;8.888;2023-03-01T08:17:55;25.80;;;15.13;;
7707;SDS011;3896;48.758;8.888;2023-03-01T08:20:20;26.23;;;15.77;;
7707;SDS011;3896;48.758;8.888;2023-03-01T08:22:46;29.33;;;15.40;;
7707;SDS011;3896;48.758;8.888;2023-03-01T08:25:11;26.30;;;16.20;;
7707;SDS011;3896;48.758;8.888;2023-03-01T08:27:37;22.87;;;15.30;;
7707;SDS011;3896;48.758;8.888;2023-03-01T08:30:03;26.47;;;15.87;;
7707;SDS011;3896;48.758;8.888;2023-03-01T08:32:28;28.63;;;15.70;;
7707;SDS011;3896;48.758;8.888;2023-03-01T08:34:54;23.67;;;14.43;;
7707;SDS011;3896;48.758;8.888;2023-03-01T08:37:20;22.73;;;14.33;;
7707;SDS011;3896;48.758;8.888;2023-03-01T08:39:46;22.30;;;14.20;;
7707;SDS011;3896;48.758;8.888;2023-03-01T08:42:11;25.00;;;17.20;;
7707;SDS011;3896;48.758;8.888;2023-03-01T08:44:37;26.83;;;16.17;;
7707;SDS011;3896;48.758;8.888;2023-03-01T08:47:02;24.60;;;15.20;;
7707;SDS011;3896;48.758;8.888;2023-03-01T08:49:29;29.70;;;16.57;;
7707;SDS011;3896;48.758;8.888;2023-03-01T08:51:57;30.80;;;16.60;;
7707;SDS011;3896;48.758;8.888;2023-03-01T08:54:23;24.60;;;15.07;;
7707;SDS011;3896;48.758;8.888;2023-03-01T08:56:48;22.20;;;15.17;;
7707;SDS011;3896;48.758;8.888;2023-03-01T08:59:16;23.40;;;15.13;;
7707;SDS011;3896;48.758;8.888;2023-03-01T09:01:42;26.77;;;16.40;;
7707;SDS011;3896;48.758;8.888;2023-03-01T09:04:09;24.93;;;15.67;;
7707;SDS011;3896;48.758;8.888;2023-03-01T09:06:35;26.60;;;15.80;;
7707;SDS011;3896;48.758;8.888;2023-03-01T09:09:02;24.77;;;15.77;;
7707;SDS011;3896;48.758;8.888;2023-03-01T09:11:28;23.37;;;14.97;;
7707;SDS011;3896;48.758;8.888;2023-03-01T09:13:55;26.30;;;15.80;;
7707;SDS011;3896;48.758;8.888;2023-03-01T09:16:21;25.10;;;15.60;;
7707;SDS011;3896;48.758;8.888;2023-03-01T09:18:51;24.10;;;15.67;;
7707;SDS011;3896;48.758;8.888;2023-03-01T09:21:18;23.30;;;15.17;;
7707;SDS011;3896;48.758;8.888;2023-03-01T09:23:46;26.90;;;15.93;;
7707;SDS011;3896;48.758;8.888;2023-03-01T09:26:13;24.00;;;14.40;;
7707;SDS011;3896;48.758;8.888;2023-03-01T09:28:44;25.07;;;16.27;;
7707;SDS011;3896;48.758;8.888;2023-03-01T09:31:10;22.63;;;15.13;;
7707;SDS011;3896;48.758;8.888;2023-03-01T09:33:37;22.23;;;14.47;;
7707;SDS011;3896;48.758;8.888;2023-03-01T09:36:05;26.07;;;14.80;;
7707;SDS011;3896;48.758;8.888;2023-03-01T09:38:34;22.20;;;15.10;;
7707;SDS011;3896;48.758;8.888;2023-03-01T09:41:00;24.63;;;15.03;;
7707;SDS011;3896;48.758;8.888;2023-03-01T09:46:12;23.23;;;15.33;;
7707;SDS011;3896;48.758;8.888;2023-03-01T09:49:06;24.80;;;15.77;;
7707;SDS011;3896;48.758;8.888;2023-03-01T09:51:35;24.90;;;15.37;;
7707;SDS011;3896;48.758;8.888;2023-03-01T09:54:01;21.00;;;14.47;;
7707;SDS011;3896;48.758;8.888;2023-03-01T09:56:29;25.13;;;15.10;;
7707;SDS011;3896;48.758;8.888;2023-03-01T09:59:26;23.03;;;15.37;;
7707;SDS011;3896;48.758;8.888;2023-03-01T10:02:18;20.63;;;14.50;;
7707;SDS011;3896;48.758;8.888;2023-03-01T10:04:51;20.30;;;13.63;;
7707;SDS011;3896;48.758;8.888;2023-03-01T10:07:47;23.97;;;15.87;;
7707;SDS011;3896;48.758;8.888;2023-03-01T10:10:32;21.73;;;14.27;;
7707;SDS011;3896;48.758;8.888;2023-03-01T10:13:13;26.27;;;15.17;;
7707;SDS011;3896;48.758;8.888;2023-03-01T10:16:01;20.73;;;14.13;;
7707;SDS011;3896;48.758;8.888;2023-03-01T10:18:54;22.07;;;15.10;;
7707;SDS011;3896;48.758;8.888;2023-03-01T10:21:25;20.73;;;14.60;;
7707;SDS011;3896;48.758;8.888;2023-03-01T10:23:52;21.60;;;15.03;;
7707;SDS011;3896;48.758;8.888;2023-03-01T10:26:24;26.73;;;16.00;;
7707;SDS011;3896;48.758;8.888;2023-03-01T10:29:10;21.43;;;14.83;;
7707;SDS011;3896;48.758;8.888;2023-03-01T10:34:15;21.50;;;15.57;;
7707;SDS011;3896;48.758;8.888;2023-03-01T10:36:48;24.60;;;15.60;;
7707;SDS011;3896;48.758;8.888;2023-03-01T10:39:20;22.93;;;14.60;;
7707;SDS011;3896;48.758;8.888;2023-03-01T10:44:41;24.40;;;15.57;;
7707;SDS011;3896;48.758;8.888;2023-03-01T10:47:28;21.10;;;14.27;;
7707;SDS011;3896;48.758;8.888;2023-03-01T10:50:01;24.57;;;14.50;;
7707;SDS011;3896;48.758;8.888;2023-03-01T10:52:33;21.90;;;14.07;;
7707;SDS011;3896;48.758;8.888;2023-03-01T11:00:56;22.20;;;14.97;;
7707;SDS011;3896;48.758;8.888;2023-03-01T11:08:45;24.57;;;15.07;;
7707;SDS011;3896;48.758;8.888;2023-03-01T11:13:52;22.53;;;15.87;;
7707;SDS011;3896;48.758;8.888;2023-03-01T11:16:35;20.97;;;15.07;;
7707;SDS011;3896;48.758;8.888;2023-03-01T11:21:35;24.23;;;15.87;;
7707;SDS011;3896;48.758;8.888;2023-03-01T11:24:25;21.80;;;14.93;;
7707;SDS011;3896;48.758;8.888;2023-03-01T11:26:56;23.00;;;15.07;;
7707;SDS011;3896;48.758;8.888;2023-03-01T11:29:33;20.57;;;13.93;;
7707;SDS011;3896;48.758;8.888;2023-03-01T11:32:05;21.77;;;15.13;;
7707;SDS011;3896;48.758;8.888;2023-03-01T11:34:38;21.53;;;14.33;;
7707;SDS011;3896;48.758;8.888;2023-03-01T11:37:21;25.77;;;14.47;;
7707;SDS011;3896;48.758;8.888;2023-03-01T11:39:54;22.43;;;14.97;;
7707;SDS011;3896;48.758;8.888;2023-03-01T11:42:28;20.47;;;14.47;;
7707;SDS011;3896;48.758;8.888;2023-03-01T11:44:56;23.43;;;15.33;;
7707;SDS011;3896;48.758;8.888;2023-03-01T12:09:37;21.17;;;14.37;;
7707;SDS011;3896;48.758;8.888;2023-03-01T12:18:26;17.03;;;12.93;;
7707;SDS011;3896;48.758;8.888;2023-03-01T12:21:20;16.93;;;13.73;;
7707;SDS011;3896;48.758;8.888;2023-03-01T12:30:01;19.37;;;13.27;;
7707;SDS011;3896;48.758;8.888;2023-03-01T12:35:32;19.67;;;13.70;;
7707;SDS011;3896;48.758;8.888;2023-03-01T12:38:17;19.93;;;14.27;;
7707;SDS011;3896;48.758;8.888;2023-03-01T12:46:18;20.57;;;13.73;;
7707;SDS011;3896;48.758;8.888;2023-03-01T12:51:42;20.60;;;13.93;;
7707;SDS011;3896;48.758;8.888;2023-03-01T12:54:19;21.43;;;13.97;;
7707;SDS011;3896;48.758;8.888;2023-03-01T12:56:52;17.50;;;13.57;;
7707;SDS011;3896;48.758;8.888;2023-03-01T12:59:29;15.77;;;13.43;;
7707;SDS011;3896;48.758;8.888;2023-03-01T13:07:23;18.30;;;13.37;;
7707;SDS011;3896;48.758;8.888;2023-03-01T13:10:06;19.17;;;13.33;;
7707;SDS011;3896;48.758;8.888;2023-03-01T13:17:55;20.57;;;13.17;;
7707;SDS011;3896;48.758;8.888;2023-03-01T13:21:04;17.90;;;13.27;;
7707;SDS011;3896;48.758;8.888;2023-03-01T13:26:02;19.20;;;13.43;;
7707;SDS011;3896;48.758;8.888;2023-03-01T13:30:57;17.20;;;12.40;;
7707;SDS011;3896;48.758;8.888;2023-03-01T13:33:33;17.60;;;12.70;;
7707;SDS011;3896;48.758;8.888;2023-03-01T13:36:07;19.57;;;13.47;;
7707;SDS011;3896;48.758;8.888;2023-03-01T13:38:36;16.83;;;12.97;;
7707;SDS011;3896;48.758;8.888;2023-03-01T13:41:05;16.63;;;13.10;;
7707;SDS011;3896;48.758;8.888;2023-03-01T13:43:38;17.60;;;13.10;;
7707;SDS011;3896;48.758;8.888;2023-03-01T13:46:19;19.13;;;14.80;;
7707;SDS011;3896;48.758;8.888;2023-03-01T13:48:48;16.90;;;13.53;;
7707;SDS011;3896;48.758;8.888;2023-03-01T13:51:16;17.67;;;13.43;;
7707;SDS011;3896;48.758;8.888;2023-03-01T13:53:50;19.70;;;14.30;;
7707;SDS011;3896;48.758;8.888;2023-03-01T13:56:27;18.47;;;14.67;;
7707;SDS011;3896;48.758;8.888;2023-03-01T13:58:59;19.70;;;14.53;;
7707;SDS011;3896;48.758;8.888;2023-03-01T14:01:30;23.87;;;14.13;;
7707;SDS011;3896;48.758;8.888;2023-03-01T14:04:00;18.57;;;13.70;;
7707;SDS011;3896;48.758;8.888;2023-03-01T14:06:31;18.17;;;13.90;;
7707;SDS011;3896;48.758;8.888;2023-03-01T14:09:05;17.60;;;14.07;;
7707;SDS011;3896;48.758;8.888;2023-03-01T14:11:54;19.70;;;14.30;;
7707;SDS011;3896;48.758;8.888;2023-03-01T14:20:54;19.40;;;14.83;;
7707;SDS011;3896;48.758;8.888;2023-03-01T14:23:20;19.00;;;15.43;;
7707;SDS011;3896;48.758;8.888;2023-03-01T14:25:48;21.07;;;14.80;;
7707;SDS011;3896;48.758;8.888;2023-03-01T14:28:23;16.60;;;13.87;;
7707;SDS011;3896;48.758;8.888;2023-03-01T14:30:56;17.53;;;15.50;;
7707;SDS011;3896;48.758;8.888;2023-03-01T14:35:52;21.10;;;14.80;;
7707;SDS011;3896;48.758;8.888;2023-03-01T14:38:20;18.80;;;14.97;;
7707;SDS011;3896;48.758;8.888;2023-03-01T14:40:47;24.73;;;14.80;;
7707;SDS011;3896;48.758;8.888;2023-03-01T14:43:18;16.50;;;14.33;;
7707;SDS011;3896;48.758;8.888;2023-03-01T14:45:48;20.43;;;14.63;;
7707;SDS011;3896;48.758;8.888;2023-03-01T14:48:15;15.83;;;13.80;;
7707;SDS011;3896;48.758;8.888;2023-03-01T14:50:41;22.37;;;15.07;;
7707;SDS011;3896;48.758;8.888;2023-03-01T14:53:12;17.77;;;15.33;;
7707;SDS011;3896;48.758;8.888;2023-03-01T14:55:44;16.90;;;13.63;;
7707;SDS011;3896;48.758;8.888;2023-03-01T14:58:13;19.20;;;15.37;;
7707;SDS011;3896;48.758;8.888;2023-03-01T15:00:47;17.27;;;15.13;;
7707;SDS011;3896;48.758;8.888;2023-03-01T15:06:04;17.53;;;13.87;;
7707;SDS011;3896;48.758;8.888;2023-03-01T15:08:31;19.60;;;14.70;;
7707;SDS011;3896;48.758;8.888;2023-03-01T15:13:25;17.93;;;14.83;;
7707;SDS011;3896;48.758;8.888;2023-03-01T15:15:53;15.77;;;13.23;;
7707;SDS011;3896;48.758;8.888;2023-03-01T15:18:28;16.90;;;13.10;;
7707;SDS011;3896;48.758;8.888;2023-03-01T15:20:54;18.57;;;15.17;;
7707;SDS011;3896;48.758;8.888;2023-03-01T15:23:29;16.70;;;14.10;;
7707;SDS011;3896;48.758;8.888;2023-03-01T15:25:55;16.83;;;13.43;;
7707;SDS011;3896;48.758;8.888;2023-03-01T15:28:26;15.97;;;12.93;;
7707;SDS011;3896;48.758;8.888;2023-03-01T15:33:47;22.90;;;15.10;;
7707;SDS011;3896;48.758;8.888;2023-03-01T15:36:30;17.03;;;14.10;;
7707;SDS011;3896;48.758;8.888;2023-03-01T15:38:59;16.50;;;13.60;;
7707;SDS011;3896;48.758;8.888;2023-03-01T15:41:27;22.20;;;14.93;;
7707;SDS011;3896;48.758;8.888;2023-03-01T15:43:58;18.30;;;14.43;;
7707;SDS011;3896;48.758;8.888;2023-03-01T15:46:29;18.33;;;13.40;;
7707;SDS011;3896;48.758;8.888;2023-03-01T15:48:57;17.33;;;14.20;;
7707;SDS011;3896;48.758;8.888;2023-03-01T15:51:37;17.87;;;13.27;;
7707;SDS011;3896;48.758;8.888;2023-03-01T15:54:11;18.43;;;13.97;;
7707;SDS011;3896;48.758;8.888;2023-03-01T15:56:43;21.33;;;14.53;;
7707;SDS011;3896;48.758;8.888;2023-03-01T15:59:09;17.33;;;13.43;;
7707;SDS011;3896;48.758;8.888;2023-03-01T16:01:40;18.80;;;14.93;;
7707;SDS011;3896;48.758;8.888;2023-03-01T16:04:06;19.63;;;15.40;;
7707;SDS011;3896;48.758;8.888;2023-03-01T16:06:31;20.57;;;15.20;;
7707;SDS011;3896;48.758;8.888;2023-03-01T16:08:57;16.70;;;12.87;;
7707;SDS011;3896;48.758;8.888;2023-03-01T16:11:23;19.00;;;14.47;;
7707;SDS011;3896;48.758;8.888;2023-03-01T16:13:48;18.93;;;14.00;;
7707;SDS011;3896;48.758;8.888;2023-03-01T16:16:16;21.90;;;14.43;;
7707;SDS011;3896;48.758;8.888;2023-03-01T16:18:42;17.13;;;13.83;;
7707;SDS011;3896;48.758;8.888;2023-03-01T16:21:27;17.07;;;12.90;;
7707;SDS011;3896;48.758;8.888;2023-03-01T16:23:53;18.90;;;13.63;;
7707;SDS011;3896;48.758;8.888;2023-03-01T16:26:18;24.13;;;15.20;;
7707;SDS011;3896;48.758;8.888;2023-03-01T16:28:44;16.80;;;13.27;;
7707;SDS011;3896;48.758;8.888;2023-03-01T16:31:10;20.30;;;14.63;;
7707;SDS011;3896;48.758;8.888;2023-03-01T16:33:39;19.47;;;14.30;;
7707;SDS011;3896;48.758;8.888;2023-03-01T16:36:08;20.43;;;13.83;;
7707;SDS011;3896;48.758;8.888;2023-03-01T16:38:35;16.67;;;13.57;;
7707;SDS011;3896;48.758;8.888;2023-03-01T16:41:01;19.30;;;14.27;;
7707;SDS011;3896;48.758;8.888;2023-03-01T16:43:27;18.53;;;13.53;;
7707;SDS011;3896;48.758;8.888;2023-03-01T16:45:53;19.17;;;14.63;;
7707;SDS011;3896;48.758;8.888;2023-03-01T16:48:19;16.90;;;13.63;;
7707;SDS011;3896;48.758;8.888;2023-03-01T16:50:45;19.07;;;13.30;;
7707;SDS011;3896;48.758;8.888;2023-03-01T16:53:20;22.93;;;14.73;;
7707;SDS011;3896;48.758;8.888;2023-03-01T16:55:52;21.43;;;12.57;;
7707;SDS011;3896;48.758;8.888;2023-03-01T16:58:18;18.97;;;13.37;;
7707;SDS011;3896;48.758;8.888;2023-03-01T17:00:44;17.43;;;13.27;;
7707;SDS011;3896;48.758;8.888;2023-03-01T17:03:09;20.83;;;13.80;;